createdAt,value
2022-08-22T00:00:53.871Z,4.70
2022-08-22T00:02:49.120Z,3.88
2022-08-22T00:02:57.618Z,5.03
2022-08-22T00:03:00.128Z,4.85
2022-08-22T00:03:11.175Z,4.47
2022-08-22T00:03:41.469Z,4.18
2022-08-22T00:06:11.954Z,5.05
2022-08-22T00:08:43.058Z,3.50
2022-08-22T00:11:25.734Z,4.15
2022-08-22T00:14:07.820Z,4.47
2022-08-22T00:16:58.071Z,3.72
2022-08-22T00:19:47.528Z,4.72
2022-08-22T00:22:31.820Z,4.07
2022-08-22T00:25:25.853Z,3.97
2022-08-22T00:28:11.757Z,4.20
2022-08-22T00:31:02.790Z,2.78
2022-08-22T00:33:46.697Z,3.85
2022-08-22T00:36:16.668Z,4.78
2022-08-22T00:39:17.984Z,4.47
2022-08-22T00:42:12.768Z,4.97
2022-08-22T00:45:12.366Z,4.03
2022-08-22T00:47:49.723Z,3.50
2022-08-22T00:50:25.713Z,4.30
2022-08-22T00:52:54.132Z,4.03
2022-08-22T00:55:48.987Z,5.18
2022-08-22T00:58:30.174Z,3.50
2022-08-22T01:01:06.647Z,4.15
2022-08-22T01:03:42.955Z,4.55
2022-08-22T01:06:40.679Z,4.15
2022-08-22T01:09:13.990Z,3.80
2022-08-22T01:11:56.887Z,3.90
2022-08-22T01:14:53.214Z,4.90
2022-08-22T01:17:36.675Z,4.57
2022-08-22T01:20:49.747Z,3.85
2022-08-22T01:23:48.391Z,4.47
2022-08-22T01:27:01.568Z,3.70
2022-08-22T01:29:56.583Z,3.30
2022-08-22T01:32:40.592Z,3.85
2022-08-22T01:35:19.651Z,3.75
2022-08-22T01:38:08.518Z,4.35
2022-08-22T01:41:13.102Z,3.70
2022-08-22T01:44:02.652Z,3.65
2022-08-22T01:47:02.546Z,3.38
2022-08-22T01:49:35.851Z,3.67
2022-08-22T01:52:12.312Z,3.85
2022-08-22T01:55:19.532Z,3.17
2022-08-22T01:57:58.342Z,3.50
2022-08-22T02:00:48.604Z,3.40
2022-08-22T02:03:33.175Z,3.75
2022-08-22T02:06:18.421Z,4.03
2022-08-22T02:09:06.415Z,3.95
2022-08-22T02:11:43.668Z,4.18
2022-08-22T02:14:28.273Z,3.95
2022-08-22T02:17:18.455Z,3.47
2022-08-22T02:19:55.463Z,3.80
2022-08-22T02:22:51.587Z,3.33
2022-08-22T02:25:32.593Z,3.53
2022-08-22T02:28:15.691Z,3.92
2022-08-22T02:30:54.921Z,4.05
2022-08-22T02:33:51.943Z,3.72
2022-08-22T02:36:30.705Z,4.32
2022-08-22T02:39:08.412Z,4.38
2022-08-22T02:42:02.444Z,3.75
2022-08-22T02:44:41.280Z,4.53
2022-08-22T02:47:26.040Z,4.07
2022-08-22T02:49:59.492Z,3.92
2022-08-22T02:52:33.687Z,3.63
2022-08-22T02:55:10.963Z,4.38
2022-08-22T02:58:03.115Z,3.10
2022-08-22T03:00:47.006Z,3.95
2022-08-22T03:03:21.204Z,4.20
2022-08-22T03:06:05.692Z,3.40
2022-08-22T03:08:38.218Z,4.70
2022-08-22T03:11:22.975Z,3.55
2022-08-22T03:14:15.839Z,4.05
2022-08-22T03:17:10.744Z,4.30
2022-08-22T03:20:04.431Z,4.25
2022-08-22T03:23:20.664Z,4.15
2022-08-22T03:26:13.606Z,4.25
2022-08-22T03:28:59.387Z,4.68
2022-08-22T03:31:29.831Z,4.45
2022-08-22T03:34:23.851Z,3.58
2022-08-22T03:37:17.711Z,3.72
2022-08-22T03:40:06.190Z,4.00
2022-08-22T03:42:42.422Z,3.90
2022-08-22T03:45:18.548Z,3.47
2022-08-22T03:48:00.397Z,3.92
2022-08-22T03:51:00.998Z,3.38
2022-08-22T03:53:46.398Z,3.50
2022-08-22T03:56:42.048Z,4.22
2022-08-22T03:59:44.499Z,4.15
2022-08-22T04:02:42.766Z,3.95
2022-08-22T04:05:54.600Z,3.65
2022-08-22T04:08:59.734Z,3.97
2022-08-22T04:11:44.760Z,3.75
2022-08-22T04:14:24.129Z,3.92
2022-08-22T04:17:01.154Z,4.60
2022-08-22T04:20:06.232Z,3.67
2022-08-22T04:23:14.300Z,4.50
2022-08-22T04:26:12.052Z,3.40
2022-08-22T04:28:47.498Z,3.95
2022-08-22T04:31:22.642Z,3.28
2022-08-22T04:33:57.347Z,4.20
2022-08-22T04:36:55.255Z,4.95
2022-08-22T04:39:38.156Z,4.28
2022-08-22T04:42:32.378Z,3.67
2022-08-22T04:45:08.468Z,4.00
2022-08-22T04:48:07.799Z,3.70
2022-08-22T04:50:43.519Z,4.15
2022-08-22T04:53:27.147Z,3.80
2022-08-22T04:56:20.392Z,3.28
2022-08-22T04:59:16.795Z,3.78
2022-08-22T05:01:55.172Z,4.13
2022-08-22T05:04:43.887Z,3.83
2022-08-22T05:07:18.441Z,4.10
2022-08-22T05:09:52.500Z,3.80
2022-08-22T05:12:31.789Z,3.97
2022-08-22T05:15:15.996Z,4.63
2022-08-22T05:17:53.402Z,5.00
2022-08-22T05:20:25.991Z,4.15
2022-08-22T05:23:06.078Z,3.75
2022-08-22T05:25:47.207Z,4.00
2022-08-22T05:28:25.092Z,3.38
2022-08-22T05:30:54.479Z,3.08
2022-08-22T05:34:00.159Z,3.70
2022-08-22T05:36:54.176Z,4.00
2022-08-22T05:39:25.506Z,3.30
2022-08-22T05:42:03.572Z,3.25
2022-08-22T05:44:36.371Z,4.05
2022-08-22T05:47:25.260Z,3.60
2022-08-22T05:50:04.916Z,3.05
2022-08-22T05:52:42.899Z,3.22
2022-08-22T05:55:39.419Z,3.22
2022-08-22T05:58:26.542Z,4.03
2022-08-22T06:01:23.814Z,3.72
2022-08-22T06:04:23.050Z,3.08
2022-08-22T06:07:20.712Z,3.50
2022-08-22T06:09:48.151Z,3.45
2022-08-22T06:12:34.674Z,4.55
2022-08-22T06:15:21.043Z,3.75
2022-08-22T06:17:55.015Z,3.58
2022-08-22T06:20:45.207Z,3.30
2022-08-22T06:23:19.408Z,3.53
2022-08-22T06:25:49.827Z,3.92
2022-08-22T06:28:22.020Z,4.10
2022-08-22T06:30:53.964Z,3.50
2022-08-22T06:33:26.259Z,2.97
2022-08-22T06:36:30.982Z,3.45
2022-08-22T06:39:31.504Z,3.45
2022-08-22T06:42:32.884Z,3.22
2022-08-22T06:45:09.557Z,3.28
2022-08-22T06:47:43.567Z,3.10
2022-08-22T06:50:34.331Z,3.95
2022-08-22T06:53:20.139Z,3.08
2022-08-22T06:55:54.684Z,3.25
2022-08-22T06:58:32.323Z,3.33
2022-08-22T07:01:12.248Z,3.42
2022-08-22T07:04:08.750Z,3.35
2022-08-22T07:06:43.101Z,3.05
2022-08-22T07:09:26.703Z,3.85
2022-08-22T07:11:57.716Z,4.22
2022-08-22T07:14:32.464Z,3.03
2022-08-22T07:17:08.315Z,3.25
2022-08-22T07:19:39.742Z,4.32
2022-08-22T07:22:30.707Z,3.50
2022-08-22T07:25:10.993Z,3.30
2022-08-22T07:28:08.783Z,3.53
2022-08-22T07:31:02.677Z,3.42
2022-08-22T07:33:47.968Z,3.20
2022-08-22T07:36:32.235Z,3.83
2022-08-22T07:39:24.295Z,3.28
2022-08-22T07:42:10.672Z,3.97
2022-08-22T07:45:06.836Z,3.88
2022-08-22T07:48:08.498Z,4.38
2022-08-22T07:50:41.989Z,4.05
2022-08-22T07:53:49.150Z,3.97
2022-08-22T07:56:26.935Z,3.58
2022-08-22T07:59:09.917Z,3.40
2022-08-22T08:01:53.546Z,4.20
2022-08-22T08:04:26.190Z,5.80
2022-08-22T08:06:58.714Z,3.70
2022-08-22T08:09:30.868Z,4.10
2022-08-22T08:12:00.391Z,3.58
2022-08-22T08:14:28.738Z,3.03
2022-08-22T08:17:06.748Z,3.25
2022-08-22T08:19:38.231Z,2.58
2022-08-22T08:22:06.843Z,3.28
2022-08-22T08:24:43.648Z,3.47
2022-08-22T08:27:35.864Z,2.83
2022-08-22T08:30:18.624Z,3.20
2022-08-22T08:32:53.934Z,3.60
2022-08-22T08:35:28.775Z,3.05
2022-08-22T08:38:14.664Z,2.85
2022-08-22T08:40:50.699Z,2.65
2022-08-22T08:43:40.548Z,2.67
2022-08-22T08:46:38.889Z,2.67
2022-08-22T08:49:20.997Z,2.58
2022-08-22T08:52:28.115Z,3.05
2022-08-22T08:55:22.826Z,2.72
2022-08-22T08:58:06.762Z,2.97
2022-08-22T09:01:13.922Z,2.85
2022-08-22T09:03:51.405Z,2.60
2022-08-22T09:06:52.852Z,2.75
2022-08-22T09:09:40.044Z,2.47
2022-08-22T09:12:36.351Z,2.15
2022-08-22T09:15:16.340Z,2.78
2022-08-22T09:18:02.765Z,2.85
2022-08-22T09:20:37.912Z,2.20
2022-08-22T09:23:23.512Z,2.30
2022-08-22T09:26:05.703Z,2.05
2022-08-22T09:28:48.867Z,2.95
2022-08-22T09:31:44.846Z,2.50
2022-08-22T09:34:24.002Z,2.67
2022-08-22T09:36:58.677Z,2.45
2022-08-22T09:39:55.465Z,2.75
2022-08-22T09:43:01.621Z,2.45
2022-08-22T09:45:35.515Z,4.68
2022-08-22T09:48:18.011Z,2.67
2022-08-22T09:51:08.290Z,2.38
2022-08-22T09:54:02.515Z,2.45
2022-08-22T09:56:49.747Z,2.15
2022-08-22T09:59:50.415Z,1.83
2022-08-22T10:02:57.137Z,2.03
2022-08-22T10:05:45.036Z,1.95
2022-08-22T10:08:31.506Z,2.33
2022-08-22T10:11:22.958Z,2.92
2022-08-22T10:14:00.547Z,1.88
2022-08-22T10:16:48.185Z,2.03
2022-08-22T10:19:28.809Z,1.98
2022-08-22T10:22:17.587Z,1.70
2022-08-22T10:25:07.465Z,1.92
2022-08-22T10:27:56.561Z,5.03
2022-08-22T10:30:47.217Z,2.00
2022-08-22T10:33:24.637Z,2.28
2022-08-22T10:36:11.770Z,2.00
2022-08-22T10:38:55.940Z,2.13
2022-08-22T10:41:46.792Z,2.05
2022-08-22T10:44:41.775Z,1.85
2022-08-22T10:47:19.084Z,1.83
2022-08-22T10:49:52.303Z,3.42
2022-08-22T10:52:46.069Z,1.77
2022-08-22T10:55:28.656Z,2.05
2022-08-22T10:57:58.896Z,1.70
2022-08-22T11:00:49.724Z,1.40
2022-08-22T11:03:25.102Z,2.38
2022-08-22T11:05:58.145Z,2.25
2022-08-22T11:08:34.634Z,1.70
2022-08-22T11:11:23.039Z,1.70
2022-08-22T11:14:17.975Z,1.73
2022-08-22T11:16:48.578Z,1.80
2022-08-22T11:19:29.110Z,2.10
2022-08-22T11:22:15.245Z,1.77
2022-08-22T11:25:11.363Z,1.90
2022-08-22T11:28:00.758Z,1.52
2022-08-22T11:30:50.434Z,2.22
2022-08-22T11:33:46.701Z,1.85
2022-08-22T11:36:46.389Z,1.70
2022-08-22T11:39:22.968Z,1.52
2022-08-22T11:42:01.483Z,1.88
2022-08-22T11:44:50.051Z,1.85
2022-08-22T11:47:26.779Z,1.60
2022-08-22T11:49:58.239Z,1.42
2022-08-22T11:52:26.165Z,2.00
2022-08-22T11:54:59.826Z,1.35
2022-08-22T11:57:35.142Z,1.70
2022-08-22T12:00:28.068Z,1.40
2022-08-22T12:03:19.296Z,2.00
2022-08-22T12:06:12.259Z,2.20
2022-08-22T12:08:50.732Z,1.30
2022-08-22T12:11:35.547Z,1.60
2022-08-22T12:14:11.242Z,2.03
2022-08-22T12:17:55.142Z,1.42
2022-08-22T12:20:41.369Z,1.63
2022-08-22T12:23:15.833Z,1.70
2022-08-22T12:26:05.872Z,1.48
2022-08-22T12:28:46.676Z,1.80
2022-08-22T12:31:20.414Z,1.40
2022-08-22T12:34:00.172Z,1.50
2022-08-22T12:36:48.815Z,1.55
2022-08-22T12:39:18.940Z,1.27
2022-08-22T12:42:12.895Z,1.38
2022-08-22T12:45:19.361Z,1.63
2022-08-22T12:48:11.996Z,2.35
2022-08-22T12:50:50.758Z,2.65
2022-08-22T12:53:36.427Z,1.40
2022-08-22T12:56:18.459Z,1.92
2022-08-22T12:59:17.936Z,2.20
2022-08-22T13:01:49.251Z,1.33
2022-08-22T13:04:33.323Z,1.63
2022-08-22T13:07:25.404Z,1.25
2022-08-22T13:10:03.144Z,1.17
2022-08-22T13:12:44.311Z,1.70
2022-08-22T13:15:21.013Z,1.92
2022-08-22T13:17:52.739Z,2.10
2022-08-22T13:20:26.653Z,1.52
2022-08-22T13:22:55.566Z,1.30
2022-08-22T13:25:29.318Z,1.60
2022-08-22T13:28:01.144Z,1.50
2022-08-22T13:30:37.562Z,2.17
2022-08-22T13:33:16.228Z,1.63
2022-08-22T13:35:53.954Z,5.60
2022-08-22T13:38:33.348Z,1.50
2022-08-22T13:41:04.342Z,2.25
2022-08-22T13:43:55.314Z,2.65
2022-08-22T13:46:30.094Z,1.70
2022-08-22T13:49:01.136Z,1.30
2022-08-22T13:52:28.750Z,1.60
2022-08-22T13:55:29.592Z,1.95
2022-08-22T13:58:07.747Z,1.50
2022-08-22T14:01:17.987Z,1.23
2022-08-22T14:04:08.364Z,1.40
2022-08-22T14:07:04.887Z,1.60
2022-08-22T14:09:54.326Z,1.60
2022-08-22T14:12:27.720Z,1.58
2022-08-22T14:15:07.950Z,4.72
2022-08-22T14:17:45.133Z,2.55
2022-08-22T14:20:32.359Z,1.83
2022-08-22T14:23:09.879Z,1.60
2022-08-22T14:25:41.984Z,1.23
2022-08-22T14:28:22.883Z,1.40
2022-08-22T14:31:13.417Z,0.98
2022-08-22T14:33:54.776Z,1.33
2022-08-22T14:36:43.171Z,1.52
2022-08-22T14:39:22.028Z,1.40
2022-08-22T14:42:04.184Z,1.83
2022-08-22T14:45:06.415Z,1.30
2022-08-22T14:47:55.141Z,1.42
2022-08-22T14:50:53.033Z,1.33
2022-08-22T14:53:24.995Z,1.60
2022-08-22T14:56:01.733Z,1.67
2022-08-22T14:58:33.963Z,1.50
2022-08-22T15:01:15.307Z,2.17
2022-08-22T15:03:43.675Z,1.95
2022-08-22T15:06:29.417Z,1.52
2022-08-22T15:08:57.787Z,1.60
2022-08-22T15:11:32.028Z,1.30
2022-08-22T15:14:08.239Z,1.30
2022-08-22T15:16:45.039Z,1.52
2022-08-22T15:19:24.005Z,1.58
2022-08-22T15:22:04.020Z,1.30
2022-08-22T15:24:32.667Z,2.05
2022-08-22T15:27:00.527Z,1.10
2022-08-22T15:29:45.183Z,1.73
2022-08-22T15:32:21.592Z,1.15
2022-08-22T15:34:52.260Z,1.30
2022-08-22T15:37:20.859Z,1.40
2022-08-22T15:40:27.250Z,1.65
2022-08-22T15:42:59.430Z,1.75
2022-08-22T15:45:34.182Z,1.52
2022-08-22T15:48:11.612Z,1.45
2022-08-22T15:50:58.917Z,1.48
2022-08-22T15:53:52.539Z,1.60
2022-08-22T15:56:39.416Z,2.55
2022-08-22T15:59:54.166Z,2.15
2022-08-22T16:02:35.243Z,2.05
2022-08-22T16:05:08.909Z,1.55
2022-08-22T16:07:41.219Z,1.90
2022-08-22T16:10:23.765Z,1.58
2022-08-22T16:13:26.171Z,1.55
2022-08-22T16:16:25.971Z,1.48
2022-08-22T16:18:53.346Z,1.55
2022-08-22T16:21:22.043Z,2.08
2022-08-22T16:23:53.636Z,2.42
2022-08-22T16:26:21.869Z,1.58
2022-08-22T16:29:00.571Z,1.67
2022-08-22T16:31:45.955Z,1.88
2022-08-22T16:34:16.599Z,1.35
2022-08-22T16:36:47.120Z,2.42
2022-08-22T16:39:21.276Z,1.58
2022-08-22T16:42:15.983Z,1.77
2022-08-22T16:45:08.298Z,2.00
2022-08-22T16:47:41.281Z,2.00
2022-08-22T16:50:23.961Z,1.80
2022-08-22T16:52:54.353Z,1.67
2022-08-22T16:55:31.046Z,1.90
2022-08-22T16:58:12.919Z,1.60
2022-08-22T17:00:46.576Z,2.10
2022-08-22T17:03:25.948Z,2.33
2022-08-22T17:05:59.220Z,1.85
2022-08-22T17:09:04.536Z,1.98
2022-08-22T17:11:47.250Z,1.75
2022-08-22T17:14:39.797Z,1.55
2022-08-22T17:17:40.953Z,1.80
2022-08-22T17:20:14.208Z,2.17
2022-08-22T17:22:47.317Z,1.92
2022-08-22T17:25:46.248Z,1.75
2022-08-22T17:28:20.166Z,1.40
2022-08-22T17:31:38.924Z,1.40
2022-08-22T17:34:49.575Z,1.70
2022-08-22T17:37:39.767Z,2.35
2022-08-22T17:40:25.158Z,2.17
2022-08-22T17:43:04.358Z,1.60
2022-08-22T17:45:50.034Z,1.55
2022-08-22T17:48:47.873Z,1.80
2022-08-22T17:51:33.691Z,2.20
2022-08-22T17:54:13.374Z,1.55
2022-08-22T17:56:47.319Z,2.13
2022-08-22T17:59:37.248Z,2.05
2022-08-22T18:02:16.265Z,1.70
2022-08-22T18:04:58.855Z,1.83
2022-08-22T18:07:30.700Z,1.90
2022-08-22T18:10:06.257Z,2.33
2022-08-22T18:12:54.512Z,1.90
2022-08-22T18:15:25.908Z,2.20
2022-08-22T18:18:06.867Z,1.90
2022-08-22T18:20:56.075Z,2.00
2022-08-22T18:23:40.586Z,2.05
2022-08-22T18:26:27.476Z,2.03
2022-08-22T18:29:16.413Z,2.22
2022-08-22T18:31:46.735Z,2.03
2022-08-22T18:34:14.138Z,2.25
2022-08-22T18:36:53.183Z,1.58
2022-08-22T18:39:29.629Z,1.60
2022-08-22T18:42:09.307Z,1.65
2022-08-22T18:44:38.994Z,1.83
2022-08-22T18:47:15.274Z,1.60
2022-08-22T18:49:48.195Z,1.75
2022-08-22T18:52:20.447Z,2.30
2022-08-22T18:55:27.080Z,2.20
2022-08-22T18:58:28.898Z,1.70
2022-08-22T19:01:08.884Z,1.40
2022-08-22T19:04:04.176Z,1.67
2022-08-22T19:07:08.901Z,1.98
2022-08-22T19:09:55.180Z,1.60
2022-08-22T19:12:50.307Z,1.75
2022-08-22T19:15:32.484Z,1.40
2022-08-22T19:18:25.902Z,2.05
2022-08-22T19:21:31.953Z,2.38
2022-08-22T19:23:59.760Z,1.65
2022-08-22T19:26:37.870Z,1.80
2022-08-22T19:29:17.242Z,2.20
2022-08-22T19:31:54.624Z,2.10
2022-08-22T19:34:25.974Z,1.70
2022-08-22T19:37:30.707Z,1.70
2022-08-22T19:40:07.458Z,2.00
2022-08-22T19:42:38.412Z,1.55
2022-08-22T19:45:27.092Z,2.10
2022-08-22T19:48:09.410Z,2.30
2022-08-22T19:50:39.269Z,2.40
2022-08-22T19:53:24.983Z,1.90
2022-08-22T19:56:09.819Z,2.22
2022-08-22T19:59:05.011Z,2.10
2022-08-22T20:01:41.522Z,2.35
2022-08-22T20:04:09.243Z,2.60
2022-08-22T20:06:52.040Z,2.25
2022-08-22T20:09:40.477Z,2.47
2022-08-22T20:12:49.416Z,2.33
2022-08-22T20:15:22.355Z,1.65
2022-08-22T20:20:58.208Z,1.88
2022-08-22T20:23:30.383Z,1.95
2022-08-22T20:25:59.010Z,2.20
2022-08-22T20:28:49.696Z,1.90
2022-08-22T20:31:25.558Z,2.22
2022-08-22T20:34:01.695Z,1.80
2022-08-22T20:36:29.681Z,2.15
2022-08-22T20:39:05.619Z,2.47
2022-08-22T20:41:41.364Z,2.33
2022-08-22T20:44:24.158Z,2.35
2022-08-22T20:46:58.049Z,2.78
2022-08-22T20:49:25.311Z,2.40
2022-08-22T20:52:01.591Z,3.20
2022-08-22T20:54:32.578Z,2.35
2022-08-22T20:57:03.654Z,2.40
2022-08-22T20:59:41.697Z,1.85
2022-08-22T21:02:18.795Z,2.13
2022-08-22T21:05:08.353Z,2.40
2022-08-22T21:07:39.538Z,2.20
2022-08-22T21:10:35.317Z,1.88
2022-08-22T21:13:32.268Z,2.40
2022-08-22T21:16:12.051Z,1.63
2022-08-22T21:18:42.682Z,2.33
2022-08-22T21:21:24.831Z,2.55
2022-08-22T21:24:00.845Z,2.20
2022-08-22T21:26:33.038Z,2.25
2022-08-22T21:29:05.667Z,2.00
2022-08-22T21:31:41.029Z,2.15
2022-08-22T21:34:14.481Z,2.47
2022-08-22T21:36:41.894Z,2.13
2022-08-22T21:39:18.550Z,1.98
2022-08-22T21:42:09.544Z,2.20
2022-08-22T21:44:42.507Z,2.92
2022-08-22T21:47:30.714Z,2.85
2022-08-22T21:49:59.082Z,2.63
2022-08-22T21:52:32.829Z,2.28
2022-08-22T21:55:23.347Z,2.78
2022-08-22T21:58:06.214Z,2.17
2022-08-22T22:00:57.366Z,2.50
2022-08-22T22:03:31.025Z,2.42
2022-08-22T22:06:00.852Z,2.28
2022-08-22T22:08:31.498Z,2.20
2022-08-22T22:11:01.792Z,2.65
2022-08-22T22:13:29.295Z,2.80
2022-08-22T22:15:57.899Z,2.60
2022-08-22T22:18:29.928Z,2.47
2022-08-22T22:20:57.776Z,2.92
2022-08-22T22:23:25.608Z,2.67
2022-08-22T22:25:55.667Z,2.35
2022-08-22T22:28:32.010Z,2.53
2022-08-22T22:30:59.528Z,2.55
2022-08-22T22:33:30.688Z,2.50
2022-08-22T22:36:03.591Z,2.67
2022-08-22T22:38:31.482Z,2.08
2022-08-22T22:40:58.795Z,2.55
2022-08-22T22:43:26.455Z,2.97
2022-08-22T22:45:53.999Z,2.45
2022-08-22T22:48:23.977Z,2.28
2022-08-22T22:50:53.328Z,3.08
2022-08-22T22:53:33.884Z,2.50
2022-08-22T22:56:10.764Z,3.05
2022-08-22T22:58:39.864Z,2.50
2022-08-22T23:01:10.700Z,2.22
2022-08-22T23:03:38.513Z,2.25
2022-08-22T23:06:15.220Z,2.30
2022-08-22T23:08:43.264Z,2.50
2022-08-22T23:11:17.844Z,2.83
2022-08-22T23:13:45.736Z,2.45
2022-08-22T23:16:15.919Z,2.65
2022-08-22T23:18:43.779Z,2.55
2022-08-22T23:21:28.949Z,2.00
2022-08-22T23:24:00.171Z,2.80
2022-08-22T23:26:28.848Z,2.38
2022-08-22T23:28:56.819Z,2.92
2022-08-22T23:31:33.324Z,2.85
2022-08-22T23:34:06.477Z,3.40
2022-08-22T23:36:34.598Z,2.42
2022-08-22T23:39:02.244Z,2.70
2022-08-22T23:41:29.627Z,3.00
2022-08-22T23:43:57.239Z,2.70
2022-08-22T23:46:26.165Z,3.28
2022-08-22T23:48:54.209Z,2.72
2022-08-22T23:51:24.946Z,2.70
2022-08-22T23:53:54.072Z,3.15
2022-08-22T23:56:31.287Z,2.63
2022-08-22T23:59:01.881Z,2.88
